Bridgewater, Canada
Current Conditions -  °F | °C
As of 6:00 PM on Sunday 23 Nov 2014 (Local Time) from CYZX Reporting Station
Few Clouds Few Clouds  
Wind Chill: 43°   Ceiling: Unl
Heat Index: 43°   Visibility: 15mi
Dew Point: 37°   Wind: 3mph
Humidity: 81%   Direction: 220°SW
Pressure: 30.13"   Gusts: NA
Location:  44.37°N, 64.52°W
Report Text: CYZX 232200Z 22003KT 15SM FEW030 06/03 A3013 RMK SC2 WNDY HILL 29007KT SLP206
Loading
Personal Weather Stations






























Interactive Weather Map New forecast layout! Learn more

10-Day Weather Forecast

Advertisements
Track Severe Weather on mobile